sensor_id;sensor_type;location;lat;lon;timestamp;temperature;humidity
6724;DHT22;3399;52.530;13.304;2023-02-01T00:00:33;4.50;99.90
6724;DHT22;3399;52.530;13.304;2023-02-01T00:03:00;4.40;99.90
6724;DHT22;3399;52.530;13.304;2023-02-01T00:05:25;4.30;99.90
6724;DHT22;3399;52.530;13.304;2023-02-01T00:07:51;4.20;99.90
6724;DHT22;3399;52.530;13.304;2023-02-01T00:10:17;4.10;99.90
6724;DHT22;3399;52.530;13.304;2023-02-01T00:12:42;4.30;99.90
6724;DHT22;3399;52.530;13.304;2023-02-01T00:15:08;4.30;99.90
6724;DHT22;3399;52.530;13.304;2023-02-01T00:17:33;4.30;99.90
6724;DHT22;3399;52.530;13.304;2023-02-01T00:19:59;4.30;99.90
6724;DHT22;3399;52.530;13.304;2023-02-01T00:22:24;4.20;99.90
6724;DHT22;3399;52.530;13.304;2023-02-01T00:24:50;4.30;99.90
6724;DHT22;3399;52.530;13.304;2023-02-01T00:27:16;4.40;99.90
6724;DHT22;3399;52.530;13.304;2023-02-01T00:29:45;4.40;99.90
6724;DHT22;3399;52.530;13.304;2023-02-01T00:32:11;4.50;99.90
6724;DHT22;3399;52.530;13.304;2023-02-01T00:34:36;4.40;99.90
6724;DHT22;3399;52.530;13.304;2023-02-01T00:37:02;4.40;99.90
6724;DHT22;3399;52.530;13.304;2023-02-01T00:39:27;4.40;99.90
6724;DHT22;3399;52.530;13.304;2023-02-01T00:41:53;4.40;99.90
6724;DHT22;3399;52.530;13.304;2023-02-01T00:44:18;4.50;99.90
6724;DHT22;3399;52.530;13.304;2023-02-01T00:46:44;4.30;99.90
6724;DHT22;3399;52.530;13.304;2023-02-01T00:49:09;4.30;99.90
6724;DHT22;3399;52.530;13.304;2023-02-01T00:51:35;4.30;99.90
6724;DHT22;3399;52.530;13.304;2023-02-01T00:54:00;4.30;99.90
6724;DHT22;3399;52.530;13.304;2023-02-01T00:56:26;4.30;99.90
6724;DHT22;3399;52.530;13.304;2023-02-01T00:58:52;4.20;99.90
6724;DHT22;3399;52.530;13.304;2023-02-01T01:01:21;4.10;99.90
6724;DHT22;3399;52.530;13.304;2023-02-01T01:03:52;4.10;99.90
6724;DHT22;3399;52.530;13.304;2023-02-01T01:06:21;4.00;99.90
6724;DHT22;3399;52.530;13.304;2023-02-01T01:08:47;3.90;99.90
6724;DHT22;3399;52.530;13.304;2023-02-01T01:11:16;3.90;99.90
6724;DHT22;3399;52.530;13.304;2023-02-01T01:13:42;3.90;99.90
6724;DHT22;3399;52.530;13.304;2023-02-01T01:16:10;3.80;99.90
6724;DHT22;3399;52.530;13.304;2023-02-01T01:18:36;3.80;99.90
6724;DHT22;3399;52.530;13.304;2023-02-01T01:21:04;3.80;99.90
6724;DHT22;3399;52.530;13.304;2023-02-01T01:23:30;3.80;99.90
6724;DHT22;3399;52.530;13.304;2023-02-01T01:25:55;3.80;99.90
6724;DHT22;3399;52.530;13.304;2023-02-01T01:28:21;3.90;99.90
6724;DHT22;3399;52.530;13.304;2023-02-01T01:30:46;3.90;99.90
6724;DHT22;3399;52.530;13.304;2023-02-01T01:33:12;3.80;99.90
6724;DHT22;3399;52.530;13.304;2023-02-01T01:35:37;3.80;99.90
6724;DHT22;3399;52.530;13.304;2023-02-01T01:38:03;3.90;99.90
6724;DHT22;3399;52.530;13.304;2023-02-01T01:40:30;3.90;99.90
6724;DHT22;3399;52.530;13.304;2023-02-01T01:42:56;3.90;99.90
6724;DHT22;3399;52.530;13.304;2023-02-01T01:45:31;3.90;99.90
6724;DHT22;3399;52.530;13.304;2023-02-01T01:48:04;4.00;99.90
6724;DHT22;3399;52.530;13.304;2023-02-01T01:50:35;4.00;99.90
6724;DHT22;3399;52.530;13.304;2023-02-01T01:53:03;4.00;99.90
6724;DHT22;3399;52.530;13.304;2023-02-01T01:55:32;4.10;99.90
6724;DHT22;3399;52.530;13.304;2023-02-01T01:58:05;4.10;99.90
6724;DHT22;3399;52.530;13.304;2023-02-01T02:00:32;4.10;99.90
6724;DHT22;3399;52.530;13.304;2023-02-01T02:03:10;4.20;99.90
6724;DHT22;3399;52.530;13.304;2023-02-01T02:05:37;4.20;99.90
6724;DHT22;3399;52.530;13.304;2023-02-01T02:08:03;4.20;99.90
6724;DHT22;3399;52.530;13.304;2023-02-01T02:10:29;4.20;99.90
6724;DHT22;3399;52.530;13.304;2023-02-01T02:13:15;4.10;99.90
6724;DHT22;3399;52.530;13.304;2023-02-01T02:23:58;4.10;99.90
6724;DHT22;3399;52.530;13.304;2023-02-01T02:29:35;4.10;99.90
6724;DHT22;3399;52.530;13.304;2023-02-01T02:35:30;4.20;99.90
6724;DHT22;3399;52.530;13.304;2023-02-01T02:38:13;4.20;99.90
6724;DHT22;3399;52.530;13.304;2023-02-01T02:41:05;4.20;99.90
6724;DHT22;3399;52.530;13.304;2023-02-01T02:43:48;4.20;99.90
6724;DHT22;3399;52.530;13.304;2023-02-01T02:46:40;4.30;99.90
6724;DHT22;3399;52.530;13.304;2023-02-01T02:49:48;4.30;99.90
6724;DHT22;3399;52.530;13.304;2023-02-01T02:52:38;4.30;99.90
6724;DHT22;3399;52.530;13.304;2023-02-01T02:55:24;4.30;99.90
6724;DHT22;3399;52.530;13.304;2023-02-01T02:57:52;4.20;99.90
6724;DHT22;3399;52.530;13.304;2023-02-01T03:00:37;4.20;99.90
6724;DHT22;3399;52.530;13.304;2023-02-01T03:03:21;4.20;99.90
6724;DHT22;3399;52.530;13.304;2023-02-01T03:06:13;4.20;99.90
6724;DHT22;3399;52.530;13.304;2023-02-01T03:08:41;4.30;99.90
6724;DHT22;3399;52.530;13.304;2023-02-01T03:11:14;4.30;99.90
6724;DHT22;3399;52.530;13.304;2023-02-01T03:13:51;4.30;99.90
6724;DHT22;3399;52.530;13.304;2023-02-01T03:16:23;4.30;99.90
6724;DHT22;3399;52.530;13.304;2023-02-01T03:19:06;4.40;99.90
6724;DHT22;3399;52.530;13.304;2023-02-01T03:24:24;4.40;99.90
6724;DHT22;3399;52.530;13.304;2023-02-01T03:29:46;4.30;99.90
6724;DHT22;3399;52.530;13.304;2023-02-01T03:32:13;4.30;99.90
6724;DHT22;3399;52.530;13.304;2023-02-01T03:34:39;4.30;99.90
6724;DHT22;3399;52.530;13.304;2023-02-01T03:37:08;4.30;99.90
6724;DHT22;3399;52.530;13.304;2023-02-01T03:39:44;4.30;99.90
6724;DHT22;3399;52.530;13.304;2023-02-01T03:42:19;4.30;99.90
6724;DHT22;3399;52.530;13.304;2023-02-01T03:44:57;4.30;99.90
6724;DHT22;3399;52.530;13.304;2023-02-01T03:47:27;4.30;99.90
6724;DHT22;3399;52.530;13.304;2023-02-01T03:50:09;4.30;99.90
6724;DHT22;3399;52.530;13.304;2023-02-01T03:52:55;4.30;99.90
6724;DHT22;3399;52.530;13.304;2023-02-01T03:55:23;4.40;99.90
6724;DHT22;3399;52.530;13.304;2023-02-01T03:58:14;4.40;99.90
6724;DHT22;3399;52.530;13.304;2023-02-01T04:00:42;4.50;99.90
6724;DHT22;3399;52.530;13.304;2023-02-01T04:03:09;4.50;99.90
6724;DHT22;3399;52.530;13.304;2023-02-01T04:05:35;4.60;99.90
6724;DHT22;3399;52.530;13.304;2023-02-01T04:08:00;4.70;99.90
6724;DHT22;3399;52.530;13.304;2023-02-01T04:10:26;4.70;99.90
6724;DHT22;3399;52.530;13.304;2023-02-01T04:12:52;4.70;99.90
6724;DHT22;3399;52.530;13.304;2023-02-01T04:15:17;4.70;99.90
6724;DHT22;3399;52.530;13.304;2023-02-01T04:17:42;4.80;99.90
6724;DHT22;3399;52.530;13.304;2023-02-01T04:20:09;4.80;99.90
6724;DHT22;3399;52.530;13.304;2023-02-01T04:22:35;4.80;99.90
6724;DHT22;3399;52.530;13.304;2023-02-01T04:25:01;4.80;99.90
6724;DHT22;3399;52.530;13.304;2023-02-01T04:27:26;4.80;99.90
6724;DHT22;3399;52.530;13.304;2023-02-01T04:29:52;4.90;99.90
6724;DHT22;3399;52.530;13.304;2023-02-01T04:32:17;4.90;99.90
6724;DHT22;3399;52.530;13.304;2023-02-01T04:34:43;4.90;99.90
6724;DHT22;3399;52.530;13.304;2023-02-01T04:37:08;4.90;99.90
6724;DHT22;3399;52.530;13.304;2023-02-01T04:39:34;4.90;99.90
6724;DHT22;3399;52.530;13.304;2023-02-01T04:41:59;4.90;99.90
6724;DHT22;3399;52.530;13.304;2023-02-01T04:44:25;4.90;99.90
6724;DHT22;3399;52.530;13.304;2023-02-01T04:46:50;5.00;99.90
6724;DHT22;3399;52.530;13.304;2023-02-01T04:49:16;5.00;99.90
6724;DHT22;3399;52.530;13.304;2023-02-01T04:51:42;5.10;99.90
6724;DHT22;3399;52.530;13.304;2023-02-01T04:54:08;5.10;99.90
6724;DHT22;3399;52.530;13.304;2023-02-01T04:56:34;5.10;99.90
6724;DHT22;3399;52.530;13.304;2023-02-01T04:59:02;5.10;99.90
6724;DHT22;3399;52.530;13.304;2023-02-01T05:01:28;5.20;99.90
6724;DHT22;3399;52.530;13.304;2023-02-01T05:03:53;5.20;99.90
6724;DHT22;3399;52.530;13.304;2023-02-01T05:06:19;5.20;99.90
6724;DHT22;3399;52.530;13.304;2023-02-01T05:08:45;5.20;99.90
6724;DHT22;3399;52.530;13.304;2023-02-01T05:11:10;5.20;99.90
6724;DHT22;3399;52.530;13.304;2023-02-01T05:13:54;5.20;99.90
6724;DHT22;3399;52.530;13.304;2023-02-01T05:16:20;5.20;99.90
6724;DHT22;3399;52.530;13.304;2023-02-01T05:18:45;5.20;99.90
6724;DHT22;3399;52.530;13.304;2023-02-01T05:21:11;5.20;99.90
6724;DHT22;3399;52.530;13.304;2023-02-01T05:23:36;5.20;99.90
6724;DHT22;3399;52.530;13.304;2023-02-01T05:26:22;5.20;99.90
6724;DHT22;3399;52.530;13.304;2023-02-01T05:28:47;5.20;99.90
6724;DHT22;3399;52.530;13.304;2023-02-01T05:31:13;5.20;99.90
6724;DHT22;3399;52.530;13.304;2023-02-01T05:33:38;5.30;99.90
6724;DHT22;3399;52.530;13.304;2023-02-01T05:36:04;5.30;99.90
6724;DHT22;3399;52.530;13.304;2023-02-01T05:38:29;5.30;99.90
6724;DHT22;3399;52.530;13.304;2023-02-01T05:40:55;5.30;99.90
6724;DHT22;3399;52.530;13.304;2023-02-01T05:43:21;5.40;99.90
6724;DHT22;3399;52.530;13.304;2023-02-01T05:45:47;5.40;99.90
6724;DHT22;3399;52.530;13.304;2023-02-01T05:48:12;5.30;99.90
6724;DHT22;3399;52.530;13.304;2023-02-01T05:50:38;5.30;99.90
6724;DHT22;3399;52.530;13.304;2023-02-01T05:53:03;5.30;99.90
6724;DHT22;3399;52.530;13.304;2023-02-01T05:55:28;5.30;99.90
6724;DHT22;3399;52.530;13.304;2023-02-01T05:57:54;5.20;99.90
6724;DHT22;3399;52.530;13.304;2023-02-01T06:00:20;5.30;99.90
6724;DHT22;3399;52.530;13.304;2023-02-01T06:02:45;5.30;99.90
6724;DHT22;3399;52.530;13.304;2023-02-01T06:05:11;5.30;99.90
6724;DHT22;3399;52.530;13.304;2023-02-01T06:07:36;5.30;99.90
6724;DHT22;3399;52.530;13.304;2023-02-01T06:10:02;5.30;99.90
6724;DHT22;3399;52.530;13.304;2023-02-01T06:12:28;5.30;99.90
6724;DHT22;3399;52.530;13.304;2023-02-01T06:14:54;5.20;99.90
6724;DHT22;3399;52.530;13.304;2023-02-01T06:17:19;5.20;99.90
6724;DHT22;3399;52.530;13.304;2023-02-01T06:19:44;5.10;99.90
6724;DHT22;3399;52.530;13.304;2023-02-01T06:22:10;5.10;99.90
6724;DHT22;3399;52.530;13.304;2023-02-01T06:24:36;5.00;99.90
6724;DHT22;3399;52.530;13.304;2023-02-01T06:27:01;4.90;99.90
6724;DHT22;3399;52.530;13.304;2023-02-01T06:29:27;4.80;99.90
6724;DHT22;3399;52.530;13.304;2023-02-01T06:31:52;4.80;99.90
6724;DHT22;3399;52.530;13.304;2023-02-01T06:34:18;4.80;99.90
6724;DHT22;3399;52.530;13.304;2023-02-01T06:36:44;4.80;99.90
6724;DHT22;3399;52.530;13.304;2023-02-01T06:39:09;4.80;99.90
6724;DHT22;3399;52.530;13.304;2023-02-01T06:41:35;4.80;99.90
6724;DHT22;3399;52.530;13.304;2023-02-01T06:44:00;4.80;99.90
6724;DHT22;3399;52.530;13.304;2023-02-01T06:46:26;4.70;99.90
6724;DHT22;3399;52.530;13.304;2023-02-01T06:48:51;4.80;99.90
6724;DHT22;3399;52.530;13.304;2023-02-01T06:51:23;4.80;99.90
6724;DHT22;3399;52.530;13.304;2023-02-01T06:53:48;4.90;99.90
6724;DHT22;3399;52.530;13.304;2023-02-01T06:56:14;4.90;99.90
6724;DHT22;3399;52.530;13.304;2023-02-01T06:58:39;5.00;99.90
6724;DHT22;3399;52.530;13.304;2023-02-01T07:01:06;5.00;99.90
6724;DHT22;3399;52.530;13.304;2023-02-01T07:03:32;5.10;99.90
6724;DHT22;3399;52.530;13.304;2023-02-01T07:05:57;5.10;99.90
6724;DHT22;3399;52.530;13.304;2023-02-01T07:08:30;5.10;99.90
6724;DHT22;3399;52.530;13.304;2023-02-01T07:10:56;5.20;99.90
6724;DHT22;3399;52.530;13.304;2023-02-01T07:13:22;5.10;99.90
6724;DHT22;3399;52.530;13.304;2023-02-01T07:15:47;5.00;99.90
6724;DHT22;3399;52.530;13.304;2023-02-01T07:18:16;5.00;99.90
6724;DHT22;3399;52.530;13.304;2023-02-01T07:20:42;4.90;99.90
6724;DHT22;3399;52.530;13.304;2023-02-01T07:23:11;4.90;99.90
6724;DHT22;3399;52.530;13.304;2023-02-01T07:25:36;4.90;99.90
6724;DHT22;3399;52.530;13.304;2023-02-01T07:28:02;4.90;99.90
6724;DHT22;3399;52.530;13.304;2023-02-01T07:30:27;4.90;99.90
6724;DHT22;3399;52.530;13.304;2023-02-01T07:32:53;4.90;99.90
6724;DHT22;3399;52.530;13.304;2023-02-01T07:35:18;4.90;99.90
6724;DHT22;3399;52.530;13.304;2023-02-01T07:37:44;5.00;99.90
6724;DHT22;3399;52.530;13.304;2023-02-01T07:40:10;5.00;99.90
6724;DHT22;3399;52.530;13.304;2023-02-01T07:42:36;4.90;99.90
6724;DHT22;3399;52.530;13.304;2023-02-01T07:45:01;4.80;99.90
6724;DHT22;3399;52.530;13.304;2023-02-01T07:47:28;4.70;99.90
6724;DHT22;3399;52.530;13.304;2023-02-01T07:49:53;4.50;99.90
6724;DHT22;3399;52.530;13.304;2023-02-01T07:52:19;4.40;99.90
6724;DHT22;3399;52.530;13.304;2023-02-01T07:54:44;4.30;99.90
6724;DHT22;3399;52.530;13.304;2023-02-01T07:57:10;4.20;99.90
6724;DHT22;3399;52.530;13.304;2023-02-01T07:59:37;4.10;99.90
6724;DHT22;3399;52.530;13.304;2023-02-01T08:02:22;4.00;99.90
6724;DHT22;3399;52.530;13.304;2023-02-01T08:04:48;4.00;99.90
6724;DHT22;3399;52.530;13.304;2023-02-01T08:07:13;3.90;99.90
6724;DHT22;3399;52.530;13.304;2023-02-01T08:09:39;3.80;99.90
6724;DHT22;3399;52.530;13.304;2023-02-01T08:12:04;3.70;99.90
6724;DHT22;3399;52.530;13.304;2023-02-01T08:14:30;3.70;99.90
6724;DHT22;3399;52.530;13.304;2023-02-01T08:16:55;3.70;99.90
6724;DHT22;3399;52.530;13.304;2023-02-01T08:19:21;3.80;99.90
6724;DHT22;3399;52.530;13.304;2023-02-01T08:21:47;3.70;99.90
6724;DHT22;3399;52.530;13.304;2023-02-01T08:24:14;3.70;99.90
6724;DHT22;3399;52.530;13.304;2023-02-01T08:26:39;3.70;99.90
6724;DHT22;3399;52.530;13.304;2023-02-01T08:29:07;3.70;99.90
6724;DHT22;3399;52.530;13.304;2023-02-01T08:31:33;3.70;99.90
6724;DHT22;3399;52.530;13.304;2023-02-01T08:34:00;3.60;99.90
6724;DHT22;3399;52.530;13.304;2023-02-01T08:36:30;3.70;99.90
6724;DHT22;3399;52.530;13.304;2023-02-01T08:38:56;3.70;99.90
6724;DHT22;3399;52.530;13.304;2023-02-01T08:41:24;3.70;99.90
6724;DHT22;3399;52.530;13.304;2023-02-01T08:43:50;3.70;99.90
6724;DHT22;3399;52.530;13.304;2023-02-01T08:46:16;3.70;99.90
6724;DHT22;3399;52.530;13.304;2023-02-01T08:48:42;3.70;99.90
6724;DHT22;3399;52.530;13.304;2023-02-01T08:51:10;3.70;99.90
6724;DHT22;3399;52.530;13.304;2023-02-01T08:53:37;3.70;99.90
6724;DHT22;3399;52.530;13.304;2023-02-01T08:56:03;3.80;99.90
6724;DHT22;3399;52.530;13.304;2023-02-01T08:58:29;3.80;99.90
6724;DHT22;3399;52.530;13.304;2023-02-01T09:00:54;3.80;99.90
6724;DHT22;3399;52.530;13.304;2023-02-01T09:03:20;3.70;99.90
6724;DHT22;3399;52.530;13.304;2023-02-01T09:05:45;3.80;99.90
6724;DHT22;3399;52.530;13.304;2023-02-01T09:08:11;3.80;99.90
6724;DHT22;3399;52.530;13.304;2023-02-01T09:10:41;3.80;99.90
6724;DHT22;3399;52.530;13.304;2023-02-01T09:13:07;3.80;99.90
6724;DHT22;3399;52.530;13.304;2023-02-01T09:15:33;3.80;99.90
6724;DHT22;3399;52.530;13.304;2023-02-01T09:17:59;3.80;99.90
6724;DHT22;3399;52.530;13.304;2023-02-01T09:20:24;3.90;99.90
6724;DHT22;3399;52.530;13.304;2023-02-01T09:22:51;3.90;99.90
6724;DHT22;3399;52.530;13.304;2023-02-01T09:25:17;4.00;99.90
6724;DHT22;3399;52.530;13.304;2023-02-01T09:27:43;4.00;99.90
6724;DHT22;3399;52.530;13.304;2023-02-01T09:30:09;4.00;99.90
6724;DHT22;3399;52.530;13.304;2023-02-01T09:32:35;4.00;99.90
6724;DHT22;3399;52.530;13.304;2023-02-01T09:35:01;4.10;99.90
6724;DHT22;3399;52.530;13.304;2023-02-01T09:37:27;4.00;99.90
6724;DHT22;3399;52.530;13.304;2023-02-01T09:39:52;4.10;99.90
6724;DHT22;3399;52.530;13.304;2023-02-01T09:43:09;4.00;99.90
6724;DHT22;3399;52.530;13.304;2023-02-01T09:45:40;4.10;99.90
6724;DHT22;3399;52.530;13.304;2023-02-01T09:48:15;4.10;99.90
6724;DHT22;3399;52.530;13.304;2023-02-01T09:50:45;4.10;99.90
6724;DHT22;3399;52.530;13.304;2023-02-01T09:55:46;4.10;99.90
6724;DHT22;3399;52.530;13.304;2023-02-01T09:58:19;4.00;99.90
6724;DHT22;3399;52.530;13.304;2023-02-01T10:00:52;4.00;99.90
6724;DHT22;3399;52.530;13.304;2023-02-01T10:03:18;4.00;99.90
6724;DHT22;3399;52.530;13.304;2023-02-01T10:06:16;4.00;99.90
6724;DHT22;3399;52.530;13.304;2023-02-01T10:09:15;3.90;99.90
6724;DHT22;3399;52.530;13.304;2023-02-01T10:15:00;4.00;99.90
6724;DHT22;3399;52.530;13.304;2023-02-01T10:17:45;4.10;99.90
6724;DHT22;3399;52.530;13.304;2023-02-01T10:23:06;4.00;99.90
6724;DHT22;3399;52.530;13.304;2023-02-01T10:26:02;4.00;99.90
6724;DHT22;3399;52.530;13.304;2023-02-01T10:28:33;4.00;99.90
6724;DHT22;3399;52.530;13.304;2023-02-01T10:31:02;4.10;99.90
6724;DHT22;3399;52.530;13.304;2023-02-01T10:33:36;4.20;99.90
6724;DHT22;3399;52.530;13.304;2023-02-01T10:38:47;4.30;99.90
6724;DHT22;3399;52.530;13.304;2023-02-01T10:41:15;4.30;99.90
6724;DHT22;3399;52.530;13.304;2023-02-01T10:43:43;4.30;99.90
6724;DHT22;3399;52.530;13.304;2023-02-01T10:46:09;4.30;99.90
6724;DHT22;3399;52.530;13.304;2023-02-01T10:48:35;4.20;99.90
6724;DHT22;3399;52.530;13.304;2023-02-01T10:51:09;4.10;99.90
6724;DHT22;3399;52.530;13.304;2023-02-01T10:53:57;4.00;99.90
6724;DHT22;3399;52.530;13.304;2023-02-01T10:56:26;3.90;99.90
6724;DHT22;3399;52.530;13.304;2023-02-01T10:59:03;3.90;99.90
6724;DHT22;3399;52.530;13.304;2023-02-01T11:01:40;4.00;99.90
6724;DHT22;3399;52.530;13.304;2023-02-01T11:04:14;4.00;99.90
6724;DHT22;3399;52.530;13.304;2023-02-01T11:06:43;4.20;99.90
6724;DHT22;3399;52.530;13.304;2023-02-01T11:16:57;4.40;99.90
6724;DHT22;3399;52.530;13.304;2023-02-01T11:19:27;4.50;99.90
6724;DHT22;3399;52.530;13.304;2023-02-01T11:21:55;4.70;99.90
6724;DHT22;3399;52.530;13.304;2023-02-01T11:24:25;4.80;99.90
6724;DHT22;3399;52.530;13.304;2023-02-01T11:26:55;5.00;99.90
6724;DHT22;3399;52.530;13.304;2023-02-01T11:29:22;5.20;99.90
6724;DHT22;3399;52.530;13.304;2023-02-01T11:31:58;5.40;99.90
6724;DHT22;3399;52.530;13.304;2023-02-01T11:34:28;5.50;99.90
6724;DHT22;3399;52.530;13.304;2023-02-01T11:36:58;5.60;99.90
6724;DHT22;3399;52.530;13.304;2023-02-01T11:39:29;5.50;99.90
6724;DHT22;3399;52.530;13.304;2023-02-01T11:42:16;5.50;99.90
6724;DHT22;3399;52.530;13.304;2023-02-01T11:44:46;5.70;99.90
6724;DHT22;3399;52.530;13.304;2023-02-01T11:47:19;5.80;99.90
6724;DHT22;3399;52.530;13.304;2023-02-01T11:53:00;6.00;99.90
6724;DHT22;3399;52.530;13.304;2023-02-01T11:55:51;6.30;99.90
6724;DHT22;3399;52.530;13.304;2023-02-01T11:58:48;6.40;99.90
6724;DHT22;3399;52.530;13.304;2023-02-01T12:06:55;6.40;99.90
6724;DHT22;3399;52.530;13.304;2023-02-01T12:09:27;6.40;99.90
6724;DHT22;3399;52.530;13.304;2023-02-01T12:12:20;6.60;99.90
6724;DHT22;3399;52.530;13.304;2023-02-01T12:24:02;6.20;99.90
6724;DHT22;3399;52.530;13.304;2023-02-01T12:26:56;6.00;99.90
6724;DHT22;3399;52.530;13.304;2023-02-01T12:35:30;5.90;99.90
6724;DHT22;3399;52.530;13.304;2023-02-01T12:38:23;5.90;99.90
6724;DHT22;3399;52.530;13.304;2023-02-01T12:41:06;5.90;99.90
6724;DHT22;3399;52.530;13.304;2023-02-01T12:46:14;6.10;99.90
6724;DHT22;3399;52.530;13.304;2023-02-01T12:51:34;6.30;99.90
6724;DHT22;3399;52.530;13.304;2023-02-01T12:54:20;6.30;99.90
6724;DHT22;3399;52.530;13.304;2023-02-01T12:56:57;6.30;99.90
6724;DHT22;3399;52.530;13.304;2023-02-01T12:59:31;6.30;99.90
6724;DHT22;3399;52.530;13.304;2023-02-01T13:02:18;6.40;99.90
6724;DHT22;3399;52.530;13.304;2023-02-01T13:07:30;6.50;99.90
6724;DHT22;3399;52.530;13.304;2023-02-01T13:10:02;6.60;99.90
6724;DHT22;3399;52.530;13.304;2023-02-01T13:12:36;6.60;99.90
6724;DHT22;3399;52.530;13.304;2023-02-01T13:15:19;6.50;99.90
6724;DHT22;3399;52.530;13.304;2023-02-01T13:17:47;6.40;99.90
6724;DHT22;3399;52.530;13.304;2023-02-01T13:20:31;6.40;99.90
6724;DHT22;3399;52.530;13.304;2023-02-01T13:23:29;6.40;99.90
6724;DHT22;3399;52.530;13.304;2023-02-01T13:25:55;6.30;99.90
6724;DHT22;3399;52.530;13.304;2023-02-01T13:28:51;6.30;99.90
6724;DHT22;3399;52.530;13.304;2023-02-01T13:31:27;6.30;99.90
6724;DHT22;3399;52.530;13.304;2023-02-01T13:37:19;6.30;99.90
6724;DHT22;3399;52.530;13.304;2023-02-01T13:40:27;6.30;99.90
6724;DHT22;3399;52.530;13.304;2023-02-01T13:42:59;6.40;99.90
6724;DHT22;3399;52.530;13.304;2023-02-01T13:45:32;6.40;99.90
6724;DHT22;3399;52.530;13.304;2023-02-01T13:48:03;6.40;99.90
6724;DHT22;3399;52.530;13.304;2023-02-01T13:50:38;6.40;99.90
6724;DHT22;3399;52.530;13.304;2023-02-01T13:56:01;6.50;99.90
6724;DHT22;3399;52.530;13.304;2023-02-01T13:58:41;6.50;99.90
6724;DHT22;3399;52.530;13.304;2023-02-01T14:03:55;6.50;99.90
6724;DHT22;3399;52.530;13.304;2023-02-01T14:11:53;6.20;99.90
6724;DHT22;3399;52.530;13.304;2023-02-01T14:19:27;5.10;99.90
6724;DHT22;3399;52.530;13.304;2023-02-01T14:21:55;5.10;99.90
6724;DHT22;3399;52.530;13.304;2023-02-01T14:24:31;5.10;99.90
6724;DHT22;3399;52.530;13.304;2023-02-01T14:26:59;5.10;99.90
6724;DHT22;3399;52.530;13.304;2023-02-01T14:29:38;5.10;99.90
6724;DHT22;3399;52.530;13.304;2023-02-01T14:32:21;5.10;99.90
6724;DHT22;3399;52.530;13.304;2023-02-01T14:37:26;5.20;99.90
6724;DHT22;3399;52.530;13.304;2023-02-01T14:39:54;5.20;99.90
6724;DHT22;3399;52.530;13.304;2023-02-01T14:58:25;5.40;99.90
6724;DHT22;3399;52.530;13.304;2023-02-01T15:00:57;5.40;99.90
6724;DHT22;3399;52.530;13.304;2023-02-01T15:03:47;5.40;99.90
6724;DHT22;3399;52.530;13.304;2023-02-01T15:06:26;5.30;99.90
6724;DHT22;3399;52.530;13.304;2023-02-01T15:09:08;5.40;99.90
6724;DHT22;3399;52.530;13.304;2023-02-01T15:11:54;5.30;99.90
6724;DHT22;3399;52.530;13.304;2023-02-01T15:14:20;5.10;99.90
6724;DHT22;3399;52.530;13.304;2023-02-01T15:16:46;5.00;99.90
6724;DHT22;3399;52.530;13.304;2023-02-01T15:19:22;4.80;99.90
6724;DHT22;3399;52.530;13.304;2023-02-01T15:21:50;4.60;99.90
6724;DHT22;3399;52.530;13.304;2023-02-01T15:24:30;4.40;99.90
6724;DHT22;3399;52.530;13.304;2023-02-01T15:27:02;4.30;99.90
6724;DHT22;3399;52.530;13.304;2023-02-01T15:29:30;4.20;99.90
6724;DHT22;3399;52.530;13.304;2023-02-01T15:31:58;4.00;99.90
6724;DHT22;3399;52.530;13.304;2023-02-01T15:34:45;4.00;99.90
6724;DHT22;3399;52.530;13.304;2023-02-01T15:37:13;3.80;99.90
6724;DHT22;3399;52.530;13.304;2023-02-01T15:42:37;3.50;99.90
6724;DHT22;3399;52.530;13.304;2023-02-01T15:45:04;3.30;99.90
6724;DHT22;3399;52.530;13.304;2023-02-01T15:47:40;3.20;99.90
6724;DHT22;3399;52.530;13.304;2023-02-01T15:50:15;3.10;99.90
6724;DHT22;3399;52.530;13.304;2023-02-01T15:52:41;3.10;99.90
6724;DHT22;3399;52.530;13.304;2023-02-01T15:55:37;3.10;99.90
6724;DHT22;3399;52.530;13.304;2023-02-01T15:58:23;3.20;99.90
6724;DHT22;3399;52.530;13.304;2023-02-01T16:00:52;3.00;99.90
6724;DHT22;3399;52.530;13.304;2023-02-01T16:03:36;2.90;99.90
6724;DHT22;3399;52.530;13.304;2023-02-01T16:06:04;2.70;99.90
6724;DHT22;3399;52.530;13.304;2023-02-01T16:08:31;2.50;99.90
6724;DHT22;3399;52.530;13.304;2023-02-01T16:11:19;2.30;99.90
6724;DHT22;3399;52.530;13.304;2023-02-01T16:13:45;2.20;99.90
6724;DHT22;3399;52.530;13.304;2023-02-01T16:16:11;2.00;99.90
6724;DHT22;3399;52.530;13.304;2023-02-01T16:18:39;2.00;99.90
6724;DHT22;3399;52.530;13.304;2023-02-01T16:21:05;2.00;99.90
6724;DHT22;3399;52.530;13.304;2023-02-01T16:23:33;2.00;99.90
6724;DHT22;3399;52.530;13.304;2023-02-01T16:25:58;2.00;99.90
6724;DHT22;3399;52.530;13.304;2023-02-01T16:28:24;2.10;99.90
6724;DHT22;3399;52.530;13.304;2023-02-01T16:30:50;2.10;99.90
6724;DHT22;3399;52.530;13.304;2023-02-01T16:33:18;2.10;99.90
6724;DHT22;3399;52.530;13.304;2023-02-01T16:35:47;2.10;99.90
6724;DHT22;3399;52.530;13.304;2023-02-01T16:38:15;2.10;99.90
6724;DHT22;3399;52.530;13.304;2023-02-01T16:40:44;2.10;99.90
6724;DHT22;3399;52.530;13.304;2023-02-01T16:43:17;2.10;99.90
6724;DHT22;3399;52.530;13.304;2023-02-01T16:45:45;2.20;99.90
6724;DHT22;3399;52.530;13.304;2023-02-01T16:48:25;2.20;99.90
6724;DHT22;3399;52.530;13.304;2023-02-01T16:50:57;2.30;99.90
6724;DHT22;3399;52.530;13.304;2023-02-01T16:53:24;2.30;99.90
6724;DHT22;3399;52.530;13.304;2023-02-01T16:55:50;2.30;99.90
6724;DHT22;3399;52.530;13.304;2023-02-01T16:58:18;2.40;99.90
6724;DHT22;3399;52.530;13.304;2023-02-01T17:00:44;2.40;99.90
6724;DHT22;3399;52.530;13.304;2023-02-01T17:03:11;2.40;99.90
6724;DHT22;3399;52.530;13.304;2023-02-01T17:05:43;2.50;99.90
6724;DHT22;3399;52.530;13.304;2023-02-01T17:08:10;2.50;99.90
6724;DHT22;3399;52.530;13.304;2023-02-01T17:10:37;2.50;99.90
6724;DHT22;3399;52.530;13.304;2023-02-01T17:13:02;2.50;99.90
6724;DHT22;3399;52.530;13.304;2023-02-01T17:15:32;2.60;99.90
6724;DHT22;3399;52.530;13.304;2023-02-01T17:18:00;2.60;99.90
6724;DHT22;3399;52.530;13.304;2023-02-01T17:20:29;2.60;99.90
6724;DHT22;3399;52.530;13.304;2023-02-01T17:22:57;2.70;99.90
6724;DHT22;3399;52.530;13.304;2023-02-01T17:25:23;2.70;99.90
6724;DHT22;3399;52.530;13.304;2023-02-01T17:27:50;2.70;99.90
6724;DHT22;3399;52.530;13.304;2023-02-01T17:30:16;2.80;99.90
6724;DHT22;3399;52.530;13.304;2023-02-01T17:32:42;2.90;99.90
6724;DHT22;3399;52.530;13.304;2023-02-01T17:35:20;2.90;99.90
6724;DHT22;3399;52.530;13.304;2023-02-01T17:37:47;2.90;99.90
6724;DHT22;3399;52.530;13.304;2023-02-01T17:40:12;3.00;99.90
6724;DHT22;3399;52.530;13.304;2023-02-01T17:42:38;3.00;99.90
6724;DHT22;3399;52.530;13.304;2023-02-01T17:45:25;3.00;99.90
6724;DHT22;3399;52.530;13.304;2023-02-01T17:47:52;3.10;99.90
6724;DHT22;3399;52.530;13.304;2023-02-01T17:50:18;3.10;99.90
6724;DHT22;3399;52.530;13.304;2023-02-01T17:52:43;3.20;99.90
6724;DHT22;3399;52.530;13.304;2023-02-01T17:55:18;3.20;99.90
6724;DHT22;3399;52.530;13.304;2023-02-01T17:57:46;3.20;99.90
6724;DHT22;3399;52.530;13.304;2023-02-01T18:00:12;3.20;99.90
6724;DHT22;3399;52.530;13.304;2023-02-01T18:02:39;3.20;99.90
6724;DHT22;3399;52.530;13.304;2023-02-01T18:07:56;3.20;99.90
6724;DHT22;3399;52.530;13.304;2023-02-01T18:10:21;3.20;99.90
6724;DHT22;3399;52.530;13.304;2023-02-01T18:12:47;3.20;99.90
6724;DHT22;3399;52.530;13.304;2023-02-01T18:15:18;3.30;99.90
6724;DHT22;3399;52.530;13.304;2023-02-01T18:17:45;3.30;99.90